Airfield :
LOGIN :

Register | Disclaimer

   EN    FR    IT 

 










Legend :    VFR   Marginal VFR   IFR   Intensive IFR   Very Intensive IFR
Visi :
Ceiling :
>= 8 km
>= 3000ft
5 to 8 km
1000 to 3000 ft
1500m to 5 km
500 to 1000 ft
800 to 1500m
200 to 500 ft
< 800m
< 200 ft
Symbols :   Thunderstorms  Fog  Heavy snow  Heavy precipitations  Wind > 20 kt
SIGMETs :     Misc.  Thunderstorms  Icing  Turbulence  Mountain Waves  Volcanic Ashes






- Airport Elevation : 3 ft
- IATA code : DHR


EHKD - Den Helder De Kooy

CURRENT METAR :
  • 202225Z AUTO 26003KT 9999 NCD 19/16 Q1006 BLU

EXPIRED METARs :
  • 202155Z AUTO 23003KT 9999 NCD 19/16 Q1006 BLU
  • 202125Z AUTO 23003KT 9999 FEW015CB BKN380 19/15 Q1006 BLU
  • 202055Z AUTO 24005KT 210V280 9999 BKN059 OVC067 20/16 Q1006 BLU
  • 202025Z AUTO 27007KT 9999 SCT061 BKN067 BKN072 20/16 Q1006 BLU
  • 201955Z AUTO 26008KT 230V290 9999 FEW061 OVC350 20/17 Q1006 BLU
  • 201925Z AUTO 26008KT 230V290 9999 BKN060 BKN069 OVC130 20/17 Q1006 BLU
  • 201855Z AUTO 26009KT 9999 SCT130 OVC310 21/18 Q1006 BLU
  • 201825Z AUTO 26007KT 9999 FEW062 OVC320 22/18 Q1006 BLU
  • 201755Z AUTO 26008KT 9999 FEW230 OVC330 23/18 Q1006 BLU

TAF TAF EHKD
Valid from the 20 at 13:00 until the 21 at 01:00 UTC


201206Z 2013/2101 11010KT CAVOK
BECMG 2019/2021 29005KT



MET'MAP, your aeronautical weather chart ! - Copyright ORBIFLY December 2007 - Disclaimer

ORBIFLY MET'MAP TEAM :

Programming & Development : Alexandra Zaïnal
Original concept : Baudouin d'Aumeries
Technical & hardware support : Manuel Goepfert
Assistance : Marc-Olivier Méhu




SOURCES & CREDITS :

   NOAA